To NAV CANADA Home Page Login to a new session Search on AWWS site Feedback and Comments Disclaimer Vers la page française équivalente Tips FAQ What's new on the site To the Forecasts and Observations / NOTAM section To "File a Flight Plan" website Publications and other links Update of the User's profile FIC Telephone Numbers My Weather Data Folder Route Weather Data Regional Weather Data Local Weather Data To the Forecasts and Observations / NOTAM section
Request Generated 08/25/2016 at 16:38:27 UTC . Weather information available at that time is displayed.

METAR/TAF

LOURDES-DE-BLANC-SABLON/QC    

SPECI CYBX 251624Z 22008KT 4SM BR OVC003 17/16 A2979 RMK ST8 SLP090
DENSITY ALT 500FT=
SPECI CYBX 251609Z 22009KT 10SM OVC004 17/16 A2980 RMK SC8 SLP092
DENSITY ALT 500FT=
METAR CYBX 251600Z 23010KT 15SM OVC007 18/16 A2979 RMK SC8 SLP091
DENSITY ALT 500FT=
METAR CYBX 251500Z 22011G17KT 15SM BKN010 18/15 A2982 RMK SC7 SLP099
DENSITY ALT 500FT=
METAR CYBX 251400Z 23007KT 15SM FEW008 BKN220 17/15 A2981 RMK SC2CI4
SLP098 DENSITY ALT 500FT=

TAF AMD CYBX 251620Z 2516/2602 23010KT 5SM -RA BR OVC004 TEMPO
2516/2518 P6SM NSW OVC010
FM251800 23012G22KT P6SM SCT010 OVC025 TEMPO 2518/2522 4SM -RA BR
OVC005
FM252200 23012G22KT 11/2SM -RA BR OVC004 TEMPO 2522/2602 4SM BR
SCT004 OVC008 PROB30 2522/2524 VRB20G30KT 2SM TSRA BR SCT004
OVC020CB
RMK NXT FCST BY 252000Z=
Your time UTC time
Weather data provided by Environment Canada and NAV CANADA